Terminal Aerodrome Forecast
Issued by NWS

Home | Current Version | Previous Version | Text Only | Print | Product List | Glossary On
Versions: 1 2 3 4 5 6 7 8 9 10 11 12 13 14 15 16 17 18 19 20 21 22 23 24 25
000
FTUS43 KGRR 202200 AAB
TAFMKG
TAF AMD
KMKG 202203Z 2022/2118 29015G22KT 6SM -SN BLSN OVC035
      TEMPO 2022/2101 5SM -SN OVC025
     FM210800 30007KT P6SM -SN BKN040
     FM211500 22006KT P6SM BKN040=

USA.gov is the U.S. government's official web portal to all federal, state and local government web resources and services.